Villanueva, New Mexico
Current Conditions -  °F | °C
As of 8:09 AM on Wednesday 22 Oct 2014 (Local Time) from KCQC Reporting Station
Moderate Fog Moderate Fog  
Wind Chill: 43°   Ceiling: 100
Heat Index: 45°   Visibility: 0.25mi
Dew Point: 43°   Wind: 5mph
Humidity: 93%   Direction: 330°NNW
Pressure: 30.21"   Gusts: NA
Location:  35.27°N, 105.36°W
Report Text: KCQC 221409Z AUTO 33004KT 1/4SM FG VV001 07/06 A3021 RMK AO2 T00720061
Loading
Personal Weather Stations






























Interactive Weather Map
Tropical Storm Tracking
New forecast layout! Learn more

10-Day Weather Forecast

Advertisements
Track Severe Weather on mobile